createdAt,value
2022-12-04T00:02:10.707Z,99098.59
2022-12-04T00:04:37.590Z,99109.34
2022-12-04T00:07:04.440Z,99106.66
2022-12-04T00:09:31.165Z,99096.09
2022-12-04T00:11:57.938Z,99090.94
2022-12-04T00:14:24.704Z,99084.50
2022-12-04T00:16:51.523Z,99090.72
2022-12-04T00:19:18.433Z,99096.72
2022-12-04T00:21:45.449Z,99092.38
2022-12-04T00:24:12.747Z,99094.44
2022-12-04T00:26:39.471Z,99091.53
2022-12-04T00:29:06.429Z,99086.97
2022-12-04T00:31:33.778Z,99088.03
2022-12-04T00:34:02.249Z,99088.84
2022-12-04T00:36:29.999Z,99083.47
2022-12-04T00:38:59.687Z,99081.38
2022-12-04T00:41:28.300Z,99091.12
2022-12-04T00:43:55.246Z,99084.06
2022-12-04T00:46:22.867Z,99088.41
2022-12-04T00:48:50.151Z,99083.88
2022-12-04T00:51:20.988Z,99085.53
2022-12-04T00:53:48.368Z,99075.59
2022-12-04T00:56:18.890Z,99071.87
2022-12-04T00:58:46.197Z,99077.47
2022-12-04T01:01:18.728Z,99077.84
2022-12-04T01:03:46.133Z,99074.94
2022-12-04T01:06:19.319Z,99072.25
2022-12-04T01:08:46.373Z,99065.84
2022-12-04T01:11:13.140Z,99060.44
2022-12-04T01:13:39.900Z,99074.78
2022-12-04T01:16:06.769Z,99081.38
2022-12-04T01:18:33.538Z,99068.53
2022-12-04T01:21:00.338Z,99066.69
2022-12-04T01:23:27.198Z,99057.56
2022-12-04T01:25:56.082Z,99064.59
2022-12-04T01:28:23.171Z,99056.53
2022-12-04T01:31:04.507Z,99057.56
2022-12-04T01:33:32.637Z,99061.09
2022-12-04T01:36:00.829Z,99054.44
2022-12-04T01:38:28.521Z,99060.88
2022-12-04T01:40:56.046Z,99064.41
2022-12-04T01:43:24.142Z,99070.81
2022-12-04T01:45:56.037Z,99065.44
2022-12-04T01:48:34.063Z,99068.97
2022-12-04T01:51:18.846Z,99068.75
2022-12-04T01:53:51.493Z,99070.63
2022-12-04T01:56:22.306Z,99071.44
2022-12-04T01:58:53.079Z,99063.34
2022-12-04T02:01:20.034Z,99075.78
2022-12-04T02:03:46.839Z,99071.44
2022-12-04T02:06:13.588Z,99075.19
2022-12-04T02:08:40.476Z,99074.97
2022-12-04T02:11:32.131Z,99076.00
2022-12-04T02:14:23.098Z,99077.88
2022-12-04T02:17:00.155Z,99074.97
2022-12-04T02:20:04.368Z,99063.97
2022-12-04T02:22:59.093Z,99063.34
2022-12-04T02:25:42.291Z,99054.25
2022-12-04T02:28:23.084Z,99056.94
2022-12-04T02:30:53.255Z,99042.63
2022-12-04T02:33:24.174Z,99045.12
2022-12-04T02:36:07.876Z,99049.69
2022-12-04T02:38:42.383Z,99053.81
2022-12-04T02:41:19.901Z,99052.78
2022-12-04T02:43:54.444Z,99056.50
2022-12-04T02:46:24.291Z,99056.28
2022-12-04T02:48:55.625Z,99058.78
2022-12-04T02:51:25.827Z,99053.38
2022-12-04T02:53:58.633Z,99040.94
2022-12-04T02:56:32.510Z,99040.94
2022-12-04T02:59:05.426Z,99045.31
2022-12-04T03:01:38.343Z,99062.06
2022-12-04T03:04:25.180Z,99056.69
2022-12-04T03:06:57.313Z,99050.25
2022-12-04T03:09:30.355Z,99045.91
2022-12-04T03:12:06.614Z,99042.19
2022-12-04T03:14:37.595Z,99038.22
2022-12-04T03:17:11.952Z,99033.06
2022-12-04T03:19:48.489Z,99042.78
2022-12-04T03:22:19.531Z,99043.63
2022-12-04T03:24:53.136Z,99044.44
2022-12-04T03:27:41.775Z,99028.50
2022-12-04T03:30:16.249Z,99026.63
2022-12-04T03:32:58.580Z,99029.94
2022-12-04T03:35:38.403Z,99026.41
2022-12-04T03:38:10.592Z,99036.38
2022-12-04T03:40:59.221Z,99030.97
2022-12-04T03:43:55.641Z,99018.31
2022-12-04T03:46:41.219Z,99011.06
2022-12-04T03:49:37.320Z,99001.53
2022-12-04T03:52:20.909Z,98991.38
2022-12-04T03:54:57.494Z,98994.69
2022-12-04T03:57:30.458Z,99001.94
2022-12-04T04:00:19.723Z,99006.50
2022-12-04T04:03:15.792Z,99003.59
2022-12-04T04:05:46.807Z,98994.69
2022-12-04T04:08:29.613Z,98992.81
2022-12-04T04:11:12.531Z,98989.91
2022-12-04T04:14:16.248Z,98990.72
2022-12-04T04:17:10.421Z,98996.13
2022-12-04T04:20:01.289Z,98998.81
2022-12-04T04:22:50.392Z,98988.03
2022-12-04T04:25:24.419Z,98988.03
2022-12-04T04:27:53.707Z,98993.25
2022-12-04T04:30:21.019Z,99003.19
2022-12-04T04:32:59.498Z,99000.50
2022-12-04T04:35:38.561Z,99004.03
2022-12-04T04:38:13.009Z,98999.47
2022-12-04T04:41:06.333Z,98978.13
2022-12-04T04:43:42.065Z,98983.28
2022-12-04T04:46:13.177Z,98985.97
2022-12-04T04:48:44.864Z,98995.94
2022-12-04T04:51:11.782Z,98999.47
2022-12-04T04:54:01.724Z,99003.81
2022-12-04T04:56:28.674Z,99009.19
2022-12-04T04:58:55.426Z,99008.59
2022-12-04T05:01:28.174Z,99005.88
2022-12-04T05:03:54.952Z,98999.84
2022-12-04T05:06:21.855Z,99003.59
2022-12-04T05:08:49.412Z,98998.19
2022-12-04T05:11:17.518Z,99015.63
2022-12-04T05:13:44.398Z,99009.19
2022-12-04T05:16:13.702Z,99006.50
2022-12-04T05:18:40.685Z,99011.91
2022-12-04T05:21:19.043Z,99021.84
2022-12-04T05:23:45.966Z,99028.06
2022-12-04T05:26:12.748Z,99019.59
2022-12-04T05:28:42.169Z,99028.72
2022-12-04T05:31:08.922Z,99021.06
2022-12-04T05:33:35.727Z,99018.56
2022-12-04T05:36:08.090Z,99007.97
2022-12-04T05:38:35.289Z,99009.84
2022-12-04T05:41:04.314Z,99010.28
2022-12-04T05:43:31.648Z,99000.94
2022-12-04T05:46:06.456Z,98993.69
2022-12-04T05:48:34.866Z,99000.09
2022-12-04T05:51:06.493Z,98986.63
2022-12-04T05:53:33.252Z,98988.06
2022-12-04T05:56:02.008Z,98986.19
2022-12-04T05:58:29.084Z,98994.28
2022-12-04T06:00:56.183Z,98998.03
2022-12-04T06:03:23.303Z,98990.16
2022-12-04T06:05:50.064Z,99004.66
2022-12-04T06:08:16.934Z,99020.63
2022-12-04T06:10:43.734Z,99031.41
2022-12-04T06:13:10.485Z,99037.81
2022-12-04T06:15:39.147Z,99031.63
2022-12-04T06:18:06.083Z,99029.53
2022-12-04T06:20:33.254Z,99021.66
2022-12-04T06:23:00.109Z,99023.75
2022-12-04T06:25:26.983Z,99021.88
2022-12-04T06:27:53.701Z,99023.75
2022-12-04T06:30:20.537Z,99007.56
2022-12-04T06:32:47.279Z,99007.38
2022-12-04T06:35:14.030Z,99014.41
2022-12-04T06:37:40.973Z,99027.06
2022-12-04T06:40:08.413Z,99032.44
2022-12-04T06:42:35.192Z,99021.44
2022-12-04T06:45:01.941Z,99024.34
2022-12-04T06:47:28.654Z,99024.56
2022-12-04T06:49:55.581Z,99030.56
2022-12-04T06:52:22.494Z,99028.50
2022-12-04T06:54:49.276Z,99041.75
2022-12-04T06:57:16.083Z,99046.53
2022-12-04T06:59:42.782Z,99028.50
2022-12-04T07:02:10.635Z,99031.78
2022-12-04T07:04:37.412Z,99045.47
2022-12-04T07:07:04.108Z,99047.13
2022-12-04T07:09:30.902Z,99033.87
2022-12-04T07:11:57.628Z,99051.69
2022-12-04T07:14:24.317Z,99050.44
2022-12-04T07:16:51.548Z,99045.28
2022-12-04T07:19:18.393Z,99052.31
2022-12-04T07:21:45.239Z,99041.53
2022-12-04T07:24:17.030Z,99045.06
2022-12-04T07:26:43.874Z,99051.06
2022-12-04T07:29:10.830Z,99044.00
2022-12-04T07:31:38.388Z,99044.84
2022-12-04T07:34:05.225Z,99044.00
2022-12-04T07:36:31.950Z,99042.34
2022-12-04T07:38:58.960Z,99044.44
2022-12-04T07:41:25.752Z,99049.22
2022-12-04T07:43:53.479Z,99052.97
2022-12-04T07:46:26.727Z,99052.53
2022-12-04T07:48:57.879Z,99048.78
2022-12-04T07:51:28.072Z,99043.41
2022-12-04T07:54:01.982Z,99047.97
2022-12-04T07:56:30.162Z,99053.12
2022-12-04T07:58:56.887Z,99046.72
2022-12-04T08:01:24.426Z,99043.41
2022-12-04T08:03:54.854Z,99046.72
2022-12-04T08:06:23.279Z,99053.12
2022-12-04T08:08:51.001Z,99059.16
2022-12-04T08:11:23.891Z,99058.31
2022-12-04T08:13:59.171Z,99058.53
2022-12-04T08:16:27.165Z,99056.66
2022-12-04T08:18:55.152Z,99061.00
2022-12-04T08:21:24.609Z,99059.56
2022-12-04T08:23:53.891Z,99049.19
2022-12-04T08:26:22.206Z,99041.09
2022-12-04T08:28:49.101Z,99046.72
2022-12-04T08:31:19.876Z,99043.63
2022-12-04T08:33:48.398Z,99038.22
2022-12-04T08:36:19.459Z,99049.41
2022-12-04T08:38:47.553Z,99055.84
2022-12-04T08:41:17.464Z,99071.56
2022-12-04T08:43:45.157Z,99064.34
2022-12-04T08:46:15.689Z,99060.62
2022-12-04T08:48:42.803Z,99062.66
2022-12-04T08:51:19.293Z,99060.62
2022-12-04T08:53:46.182Z,99067.66
2022-12-04T08:56:13.665Z,99072.00
2022-12-04T08:58:40.745Z,99067.44
2022-12-04T09:01:13.408Z,99070.75
2022-12-04T09:03:41.851Z,99075.94
2022-12-04T09:06:11.498Z,99066.81
2022-12-04T09:08:39.328Z,99060.81
2022-12-04T09:11:08.340Z,99054.59
2022-12-04T09:13:36.367Z,99058.72
2022-12-04T09:16:05.695Z,99049.59
2022-12-04T09:18:34.387Z,99055.41
2022-12-04T09:21:04.503Z,99057.88
2022-12-04T09:23:31.918Z,99059.31
2022-12-04T09:25:58.803Z,99059.53
2022-12-04T09:28:25.682Z,99065.53
2022-12-04T09:31:06.545Z,99069.91
2022-12-04T09:33:34.130Z,99078.19
2022-12-04T09:36:02.941Z,99075.50
2022-12-04T09:38:30.999Z,99078.19
2022-12-04T09:41:27.598Z,99078.81
2022-12-04T09:44:03.607Z,99078.59
2022-12-04T09:46:53.789Z,99073.63
2022-12-04T09:49:31.823Z,99076.13
2022-12-04T09:52:02.469Z,99075.28
2022-12-04T09:54:41.035Z,99070.09
2022-12-04T09:57:37.185Z,99070.53
2022-12-04T10:00:12.672Z,99077.19
2022-12-04T10:02:42.683Z,99075.09
2022-12-04T10:05:36.909Z,99062.44
2022-12-04T10:08:19.295Z,99061.41
2022-12-04T10:10:58.457Z,99062.44
2022-12-04T10:14:22.503Z,99056.25
2022-12-04T10:17:29.400Z,99059.75
2022-12-04T10:20:47.071Z,99061.41
2022-12-04T10:23:50.443Z,99051.06
2022-12-04T10:26:19.522Z,99049.81
2022-12-04T10:29:01.461Z,99040.06
2022-12-04T10:31:29.664Z,99040.69
2022-12-04T10:34:02.228Z,99032.41
2022-12-04T10:36:33.453Z,99030.53
2022-12-04T10:39:13.954Z,99029.28
2022-12-04T10:41:51.068Z,99033.25
2022-12-04T10:44:19.536Z,99022.66
2022-12-04T10:46:47.160Z,99029.94
2022-12-04T10:49:23.754Z,99019.97
2022-12-04T10:51:50.606Z,99025.97
2022-12-04T10:54:37.342Z,99020.38
2022-12-04T10:57:10.946Z,99018.72
2022-12-04T10:59:53.936Z,99010.41
2022-12-04T11:02:22.926Z,99000.25
2022-12-04T11:05:23.602Z,99003.56
2022-12-04T11:07:51.753Z,98999.41
2022-12-04T11:10:21.427Z,98989.91
2022-12-04T11:13:02.734Z,98997.16
2022-12-04T11:15:29.850Z,99013.28
2022-12-04T11:18:07.681Z,99014.12
2022-12-04T11:20:34.783Z,99011.63
2022-12-04T11:23:01.713Z,99006.47
2022-12-04T11:25:36.413Z,98995.06
2022-12-04T11:28:04.511Z,98982.84
2022-12-04T11:30:37.990Z,98978.06
2022-12-04T11:33:15.197Z,98979.13
2022-12-04T11:35:42.735Z,98983.91
2022-12-04T11:38:16.677Z,98973.94
2022-12-04T11:40:53.567Z,98974.97
2022-12-04T11:43:22.561Z,98976.44
2022-12-04T11:45:58.297Z,98974.34
2022-12-04T11:48:25.953Z,98973.28
2022-12-04T11:51:02.153Z,98966.88
2022-12-04T11:53:54.659Z,98954.22
2022-12-04T11:56:34.084Z,98950.06
2022-12-04T11:59:25.930Z,98950.91
2022-12-04T12:02:34.483Z,98950.06
2022-12-04T12:05:04.336Z,98956.09
2022-12-04T12:07:34.636Z,98954.22
2022-12-04T12:10:26.182Z,98954.00
2022-12-04T12:13:02.124Z,98960.22
2022-12-04T12:15:35.261Z,98953.38
2022-12-04T12:18:21.062Z,98956.69
2022-12-04T12:21:10.945Z,98953.16
2022-12-04T12:24:08.766Z,98945.91
2022-12-04T12:26:57.860Z,98957.72
2022-12-04T12:29:58.917Z,98962.06
2022-12-04T12:32:49.566Z,98964.16
2022-12-04T12:35:30.002Z,98950.47
2022-12-04T12:38:02.722Z,98960.44
2022-12-04T12:40:37.610Z,98955.25
2022-12-04T12:43:33.533Z,98946.72
2022-12-04T12:46:18.459Z,98953.78
2022-12-04T12:48:59.461Z,98955.66
2022-12-04T12:51:47.779Z,98948.00
2022-12-04T12:54:39.396Z,98950.06
2022-12-04T12:57:13.731Z,98964.37
2022-12-04T12:59:58.630Z,98966.47
2022-12-04T13:02:28.826Z,98971.03
2022-12-04T13:05:00.461Z,98967.94
2022-12-04T13:07:47.500Z,98965.47
2022-12-04T13:10:25.408Z,98961.72
2022-12-04T13:13:01.391Z,98969.81
2022-12-04T13:16:02.126Z,98984.34
2022-12-04T13:18:37.333Z,98979.75
2022-12-04T13:21:07.088Z,98985.78
2022-12-04T13:23:46.055Z,98980.37
2022-12-04T13:26:34.471Z,98980.16
2022-12-04T13:29:38.265Z,98985.78
2022-12-04T13:32:22.538Z,98984.56
2022-12-04T13:35:07.060Z,98983.94
2022-12-04T13:37:40.134Z,98978.16
2022-12-04T13:40:34.870Z,98977.31
2022-12-04T13:43:24.921Z,98984.16
2022-12-04T13:45:54.382Z,98983.75
2022-12-04T13:48:36.581Z,98983.53
2022-12-04T13:51:05.616Z,98974.19
2022-12-04T13:53:37.607Z,98980.63
2022-12-04T13:56:09.427Z,98972.78
2022-12-04T13:58:37.732Z,98965.31
2022-12-04T14:01:24.929Z,98968.84
2022-12-04T14:03:59.443Z,98959.72
2022-12-04T14:06:34.260Z,98966.56
2022-12-04T14:09:05.913Z,98971.13
2022-12-04T14:11:44.892Z,98975.50
2022-12-04T14:14:27.328Z,98977.97
2022-12-04T14:16:57.635Z,98973.41
2022-12-04T14:19:36.206Z,98966.38
2022-12-04T14:22:04.189Z,98968.84
2022-12-04T14:24:37.684Z,98978.19
2022-12-04T14:27:35.374Z,98968.44
2022-12-04T14:30:03.233Z,98979.22
2022-12-04T14:32:33.764Z,98984.00
2022-12-04T14:35:01.356Z,98983.38
2022-12-04T14:37:36.171Z,98981.31
2022-12-04T14:40:09.206Z,98981.72
2022-12-04T14:42:40.170Z,98985.00
2022-12-04T14:45:27.974Z,98985.44
2022-12-04T14:48:03.707Z,98982.75
2022-12-04T14:50:39.699Z,98984.63
2022-12-04T14:53:10.355Z,98991.66
2022-12-04T14:55:52.847Z,98982.75
2022-12-04T14:58:31.195Z,98983.19
2022-12-04T15:01:01.969Z,98984.84
2022-12-04T15:03:32.271Z,98991.47
2022-12-04T15:06:06.316Z,98990.66
2022-12-04T15:08:35.418Z,99002.03
2022-12-04T15:11:25.217Z,98995.22
2022-12-04T15:13:52.400Z,99004.72
2022-12-04T15:16:23.296Z,98993.34
2022-12-04T15:19:01.685Z,98992.50
2022-12-04T15:21:37.899Z,98990.88
2022-12-04T15:24:23.414Z,98989.00
2022-12-04T15:26:52.522Z,98991.06
2022-12-04T15:29:28.985Z,98991.06
2022-12-04T15:32:00.588Z,98991.28
2022-12-04T15:34:41.823Z,98988.59
2022-12-04T15:37:20.752Z,98983.41
2022-12-04T15:39:51.824Z,98985.28
2022-12-04T15:42:27.330Z,98983.62
2022-12-04T15:45:03.583Z,98993.78
2022-12-04T15:47:50.638Z,99000.63
2022-12-04T15:50:17.919Z,99008.69
2022-12-04T15:53:13.053Z,99003.31
2022-12-04T15:55:49.922Z,99001.66
2022-12-04T15:58:43.278Z,98998.75
2022-12-04T16:01:13.575Z,98995.44
2022-12-04T16:03:43.876Z,98996.69
2022-12-04T16:06:13.504Z,98991.53
2022-12-04T16:08:43.949Z,98999.81
2022-12-04T16:11:23.440Z,98999.81
2022-12-04T16:14:04.959Z,98993.59
2022-12-04T16:16:32.480Z,98989.03
2022-12-04T16:19:14.588Z,98986.34
2022-12-04T16:21:41.881Z,98986.53
2022-12-04T16:24:11.758Z,98982.63
2022-12-04T16:26:39.000Z,98990.91
2022-12-04T16:29:09.382Z,98983.00
2022-12-04T16:31:39.145Z,98985.88
2022-12-04T16:34:06.539Z,98993.97
2022-12-04T16:36:34.043Z,98990.44
2022-12-04T16:39:02.144Z,98989.63
2022-12-04T16:41:29.429Z,98980.50
2022-12-04T16:43:58.433Z,98985.28
2022-12-04T16:46:28.044Z,98980.50
2022-12-04T16:48:56.145Z,98981.38
2022-12-04T16:51:26.911Z,98985.88
2022-12-04T16:53:55.066Z,98987.97
2022-12-04T16:56:22.920Z,98984.25
2022-12-04T16:58:50.395Z,98985.88
2022-12-04T17:01:24.441Z,98986.75
2022-12-04T17:03:52.227Z,98988.41
2022-12-04T17:06:19.983Z,98987.56
2022-12-04T17:08:47.340Z,98999.16
2022-12-04T17:11:17.099Z,98997.31
2022-12-04T17:13:44.978Z,98989.22
2022-12-04T17:16:14.979Z,98986.75
2022-12-04T17:18:44.272Z,98985.06
2022-12-04T17:21:13.072Z,98989.63
2022-12-04T17:23:40.821Z,98993.78
2022-12-04T17:26:13.410Z,98996.47
2022-12-04T17:28:41.478Z,99005.22
2022-12-04T17:31:18.235Z,99007.91
2022-12-04T17:33:46.324Z,99000.00
2022-12-04T17:36:15.818Z,99012.44
2022-12-04T17:38:43.424Z,99016.38
2022-12-04T17:41:14.373Z,99021.94
2022-12-04T17:43:42.654Z,99012.00
2022-12-04T17:46:16.605Z,99017.37
2022-12-04T17:48:44.892Z,99013.69
2022-12-04T17:51:15.912Z,99020.72
2022-12-04T17:53:43.571Z,99019.25
2022-12-04T17:56:14.019Z,99019.25
2022-12-04T17:58:41.428Z,99026.50
2022-12-04T18:01:11.808Z,99024.63
2022-12-04T18:03:39.754Z,99027.31
2022-12-04T18:06:14.299Z,99024.44
2022-12-04T18:08:46.602Z,99026.09
2022-12-04T18:11:18.022Z,99022.75
2022-12-04T18:13:45.387Z,99015.50
2022-12-04T18:16:12.701Z,99014.69
2022-12-04T18:18:40.189Z,99012.81
2022-12-04T18:21:11.304Z,99016.38
2022-12-04T18:23:45.932Z,99022.59
2022-12-04T18:26:16.917Z,99025.28
2022-12-04T18:28:45.424Z,99024.44
2022-12-04T18:31:14.092Z,99027.13
2022-12-04T18:33:43.357Z,99033.34
2022-12-04T18:36:21.913Z,99030.66
2022-12-04T18:38:58.195Z,99022.59
2022-12-04T18:41:26.604Z,99014.69
2022-12-04T18:43:54.329Z,99013.69
2022-12-04T18:46:22.425Z,99018.41
2022-12-04T18:48:53.297Z,99009.28
2022-12-04T18:51:23.845Z,99009.28
2022-12-04T18:53:53.359Z,99010.34
2022-12-04T18:56:23.118Z,99012.00
2022-12-04T18:58:50.715Z,99013.84
2022-12-04T19:01:20.560Z,99013.03
2022-12-04T19:03:48.805Z,99013.84
2022-12-04T19:06:16.256Z,99013.69
2022-12-04T19:08:44.044Z,99015.72
2022-12-04T19:11:14.333Z,99015.50
2022-12-04T19:13:44.523Z,99007.66
2022-12-04T19:16:13.328Z,99012.00
2022-12-04T19:18:43.083Z,99007.44
2022-12-04T19:21:10.469Z,99008.28
2022-12-04T19:23:38.108Z,99004.56
2022-12-04T19:26:06.266Z,99013.69
2022-12-04T19:28:33.847Z,99019.06
2022-12-04T19:31:02.725Z,99021.75
2022-12-04T19:33:30.907Z,99016.38
2022-12-04T19:36:00.758Z,99013.69
2022-12-04T19:38:29.512Z,99014.50
2022-12-04T19:41:21.274Z,99013.69
2022-12-04T19:43:55.348Z,99013.69
2022-12-04T19:46:26.696Z,99018.84
2022-12-04T19:48:57.407Z,99008.94
2022-12-04T19:51:25.977Z,99007.91
2022-12-04T19:53:54.980Z,99012.81
2022-12-04T19:56:24.678Z,99017.19
2022-12-04T19:58:53.627Z,99015.97
2022-12-04T20:01:25.462Z,99017.84
2022-12-04T20:03:53.772Z,99018.66
2022-12-04T20:06:22.744Z,99017.00
2022-12-04T20:09:01.274Z,99015.75
2022-12-04T20:11:30.248Z,99010.59
2022-12-04T20:13:59.717Z,99008.50
2022-12-04T20:16:28.925Z,99015.34
2022-12-04T20:18:56.495Z,99014.94
2022-12-04T20:21:28.844Z,99011.19
2022-12-04T20:23:57.458Z,99016.59
2022-12-04T20:26:28.840Z,99005.59
2022-12-04T20:28:59.353Z,99009.34
2022-12-04T20:31:32.637Z,99000.44
2022-12-04T20:34:02.799Z,99002.91
2022-12-04T20:36:32.063Z,99000.00
2022-12-04T20:38:59.906Z,98999.19
2022-12-04T20:41:29.497Z,99002.69
2022-12-04T20:44:02.312Z,98998.12
2022-12-04T20:46:36.868Z,99006.22
2022-12-04T20:49:07.101Z,98998.12
2022-12-04T20:51:37.652Z,98997.31
2022-12-04T20:54:05.927Z,98993.59
2022-12-04T20:56:35.954Z,99004.13
2022-12-04T20:59:06.265Z,98990.06
2022-12-04T21:01:35.820Z,98997.09
2022-12-04T21:04:04.712Z,99002.50
2022-12-04T21:06:38.415Z,98998.75
2022-12-04T21:09:07.664Z,98990.47
2022-12-04T21:11:37.125Z,98988.81
2022-12-04T21:14:25.518Z,98987.56
2022-12-04T21:16:53.602Z,98985.06
2022-12-04T21:19:22.428Z,98972.44
2022-12-04T21:21:50.217Z,98981.34
2022-12-04T21:24:20.259Z,98981.34
2022-12-04T21:26:47.354Z,98983.22
2022-12-04T21:29:15.182Z,98982.16
2022-12-04T21:31:42.370Z,98990.25
2022-12-04T21:34:11.887Z,98983.81
2022-12-04T21:36:39.055Z,98994.59
2022-12-04T21:39:06.334Z,98992.12
2022-12-04T21:41:51.556Z,98993.78
2022-12-04T21:44:20.169Z,99001.22
2022-12-04T21:46:48.087Z,98995.03
2022-12-04T21:49:16.347Z,98996.69
2022-12-04T21:51:59.488Z,98993.16
2022-12-04T21:54:28.161Z,98992.31
2022-12-04T21:56:55.928Z,98990.47
2022-12-04T21:59:23.617Z,99001.22
2022-12-04T22:01:50.431Z,99006.41
2022-12-04T22:04:17.492Z,99001.84
2022-12-04T22:06:44.265Z,98993.97
2022-12-04T22:09:12.853Z,98997.50
2022-12-04T22:11:41.650Z,99000.19
2022-12-04T22:14:09.021Z,98999.38
2022-12-04T22:16:41.589Z,99004.53
2022-12-04T22:19:09.317Z,99007.22
2022-12-04T22:21:36.139Z,98999.38
2022-12-04T22:24:04.280Z,99003.72
2022-12-04T22:26:31.743Z,99004.53
2022-12-04T22:28:59.309Z,99007.03
2022-12-04T22:31:28.454Z,98998.31
2022-12-04T22:33:57.267Z,98998.12
2022-12-04T22:36:30.222Z,98993.78
2022-12-04T22:39:12.407Z,98994.59
2022-12-04T22:41:39.299Z,98986.72
2022-12-04T22:44:06.673Z,98984.88
2022-12-04T22:46:34.186Z,98975.13
2022-12-04T22:49:01.108Z,98979.03
2022-12-04T22:51:28.704Z,98976.56
2022-12-04T22:53:57.924Z,98974.09
2022-12-04T22:56:30.109Z,98971.41
2022-12-04T22:58:58.083Z,98973.03
2022-12-04T23:01:27.851Z,98972.00
2022-12-04T23:03:55.769Z,98967.44
2022-12-04T23:06:24.371Z,98972.22
2022-12-04T23:08:56.075Z,98969.53
2022-12-04T23:11:24.253Z,98960.62
2022-12-04T23:13:53.528Z,98963.94
2022-12-04T23:16:22.649Z,98961.44
2022-12-04T23:18:49.759Z,98959.38
2022-12-04T23:21:17.088Z,98962.28
2022-12-04T23:23:45.765Z,98959.78
2022-12-04T23:26:15.602Z,98957.09
2022-12-04T23:28:42.772Z,98958.75
2022-12-04T23:31:11.099Z,98949.63
2022-12-04T23:33:38.927Z,98943.63
2022-12-04T23:36:07.925Z,98944.25
2022-12-04T23:38:36.976Z,98931.59
2022-12-04T23:41:06.716Z,98945.28
2022-12-04T23:43:34.684Z,98944.47
2022-12-04T23:46:05.750Z,98938.25
2022-12-04T23:48:35.974Z,98932.66
2022-12-04T23:51:02.934Z,98928.50
2022-12-04T23:53:29.785Z,98922.53
2022-12-04T23:56:04.531Z,98917.75
2022-12-04T23:58:32.539Z,98915.66
